createdAt,value
2022-11-09T00:01:04.003Z,1655.22
2022-11-09T00:03:32.283Z,1653.68
2022-11-09T00:06:02.314Z,1653.55
2022-11-09T00:08:30.703Z,1653.28
2022-11-09T00:11:04.668Z,1650.22
2022-11-09T00:13:32.981Z,1653.25
2022-11-09T00:16:02.796Z,1654.15
2022-11-09T00:18:30.957Z,1651.85
2022-11-09T00:20:59.328Z,1654.20
2022-11-09T00:23:28.771Z,1656.95
2022-11-09T00:26:02.122Z,1653.90
2022-11-09T00:28:30.177Z,1651.30
2022-11-09T00:31:00.658Z,1655.63
2022-11-09T00:33:30.666Z,1651.82
2022-11-09T00:35:59.344Z,1652.10
2022-11-09T00:38:28.843Z,1652.10
2022-11-09T00:41:01.854Z,1651.88
2022-11-09T00:43:33.071Z,1648.18
2022-11-09T00:46:01.419Z,1650.28
2022-11-09T00:48:29.949Z,1653.35
2022-11-09T00:50:59.011Z,1649.65
2022-11-09T00:53:29.105Z,1648.90
2022-11-09T00:55:58.512Z,1651.13
2022-11-09T00:58:27.833Z,1649.80
2022-11-09T01:00:56.836Z,1649.00
2022-11-09T01:03:25.579Z,1648.25
2022-11-09T01:05:54.200Z,1648.05
2022-11-09T01:08:22.238Z,1653.28
2022-11-09T01:10:51.748Z,1653.70
2022-11-09T01:13:20.887Z,1651.90
2022-11-09T01:15:53.174Z,1649.55
2022-11-09T01:18:22.790Z,1652.40
2022-11-09T01:20:53.221Z,1649.70
2022-11-09T01:23:21.653Z,1651.25
2022-11-09T01:25:59.491Z,1649.07
2022-11-09T01:28:27.929Z,1654.95
2022-11-09T01:30:56.479Z,1648.40
2022-11-09T01:33:25.255Z,1650.55
2022-11-09T01:35:53.365Z,1654.18
2022-11-09T01:38:21.759Z,1649.40
2022-11-09T01:40:51.227Z,1648.72
2022-11-09T01:43:21.817Z,1649.75
2022-11-09T01:45:52.471Z,1646.85
2022-11-09T01:48:27.114Z,1649.07
2022-11-09T01:50:58.566Z,1647.88
2022-11-09T01:53:31.068Z,1650.25
2022-11-09T01:56:05.985Z,1642.47
2022-11-09T01:58:38.712Z,1645.43
2022-11-09T02:01:11.193Z,1643.30
2022-11-09T02:03:45.020Z,1645.72
2022-11-09T02:06:16.416Z,1645.85
2022-11-09T02:08:46.744Z,1638.75
2022-11-09T02:11:20.200Z,1643.28
2022-11-09T02:13:52.529Z,1636.95
2022-11-09T02:16:21.993Z,1636.35
2022-11-09T02:18:54.138Z,1636.40
2022-11-09T02:21:29.915Z,1635.25
2022-11-09T02:23:58.702Z,1636.68
2022-11-09T02:26:32.271Z,1633.70
2022-11-09T02:29:03.209Z,1628.47
2022-11-09T02:31:36.252Z,1628.50
2022-11-09T02:34:07.678Z,1631.60
2022-11-09T02:36:37.339Z,1629.25
2022-11-09T02:39:08.819Z,1629.27
2022-11-09T02:41:41.299Z,1629.55
2022-11-09T02:44:10.263Z,1629.95
2022-11-09T02:46:38.764Z,1630.07
2022-11-09T02:49:06.919Z,1627.35
2022-11-09T02:51:38.589Z,1628.70
2022-11-09T02:54:06.920Z,1628.05
2022-11-09T02:56:35.140Z,1628.63
2022-11-09T02:59:04.049Z,1627.07
2022-11-09T03:01:33.615Z,1628.18
2022-11-09T03:04:01.881Z,1628.55
2022-11-09T03:06:35.348Z,1628.70
2022-11-09T03:09:12.114Z,1620.03
2022-11-09T03:11:41.416Z,1535.97
2022-11-09T03:14:11.958Z,1599.47
2022-11-09T03:16:50.240Z,1600.20
2022-11-09T03:19:19.315Z,1611.10
2022-11-09T03:21:49.848Z,1611.55
2022-11-09T03:24:23.724Z,1623.13
2022-11-09T03:26:55.056Z,1622.57
2022-11-09T03:29:23.245Z,1623.45
2022-11-09T03:31:51.383Z,1629.32
2022-11-09T03:34:19.521Z,1626.60
2022-11-09T03:36:47.673Z,1626.43
2022-11-09T03:39:15.945Z,1625.68
2022-11-09T03:41:45.495Z,1626.28
2022-11-09T03:44:13.500Z,1626.38
2022-11-09T03:46:41.599Z,1623.45
2022-11-09T03:49:09.721Z,1629.93
2022-11-09T03:51:37.800Z,1625.90
2022-11-09T03:54:05.930Z,1627.22
2022-11-09T03:56:33.995Z,1624.45
2022-11-09T03:59:03.581Z,1629.90
2022-11-09T04:01:31.597Z,1624.45
2022-11-09T04:03:59.751Z,1625.25
2022-11-09T04:06:27.853Z,1626.65
2022-11-09T04:08:55.956Z,1622.25
2022-11-09T04:11:24.102Z,1625.35
2022-11-09T04:13:52.165Z,1632.80
2022-11-09T04:16:21.600Z,1634.20
2022-11-09T04:18:49.752Z,1631.57
2022-11-09T04:21:23.677Z,1630.60
2022-11-09T04:23:52.353Z,1626.18
2022-11-09T04:26:20.422Z,1629.07
2022-11-09T04:28:48.561Z,1625.38
2022-11-09T04:31:16.882Z,1627.22
2022-11-09T04:33:50.075Z,1622.97
2022-11-09T04:36:18.503Z,1627.80
2022-11-09T04:38:46.890Z,1625.55
2022-11-09T04:41:15.160Z,1629.60
2022-11-09T04:43:43.440Z,1625.45
2022-11-09T04:46:11.679Z,1620.13
2022-11-09T04:48:39.844Z,1615.22
2022-11-09T04:51:11.283Z,1614.63
2022-11-09T04:53:40.068Z,1617.35
2022-11-09T04:56:11.028Z,1612.10
2022-11-09T04:58:39.349Z,1613.85
2022-11-09T05:01:11.969Z,1618.13
2022-11-09T05:03:40.569Z,1613.90
2022-11-09T05:06:24.489Z,1617.15
2022-11-09T05:08:52.941Z,1621.20
2022-11-09T05:11:21.281Z,1618.45
2022-11-09T05:13:51.518Z,1618.03
2022-11-09T05:16:20.708Z,1621.47
2022-11-09T05:18:49.047Z,1618.35
2022-11-09T05:21:18.739Z,1621.55
2022-11-09T05:24:01.287Z,1620.38
2022-11-09T05:26:31.522Z,1617.78
2022-11-09T05:29:00.599Z,1615.83
2022-11-09T05:31:29.279Z,1622.47
2022-11-09T05:33:57.773Z,1622.65
2022-11-09T05:36:28.318Z,1623.10
2022-11-09T05:38:56.730Z,1622.78
2022-11-09T05:41:24.940Z,1622.15
2022-11-09T05:43:54.280Z,1622.18
2022-11-09T05:46:22.337Z,1626.75
2022-11-09T05:48:50.467Z,1624.03
2022-11-09T05:51:18.564Z,1625.20
2022-11-09T05:53:48.065Z,1626.32
2022-11-09T05:56:16.448Z,1621.22
2022-11-09T05:58:44.671Z,1626.20
2022-11-09T06:01:14.777Z,1626.97
2022-11-09T06:03:44.207Z,1622.45
2022-11-09T06:06:14.393Z,1623.87
2022-11-09T06:08:42.948Z,1621.72
2022-11-09T06:11:19.879Z,1619.72
2022-11-09T06:13:53.653Z,1620.75
2022-11-09T06:16:21.887Z,1624.40
2022-11-09T06:18:49.957Z,1625.60
2022-11-09T06:21:18.275Z,1627.15
2022-11-09T06:23:46.500Z,1627.35
2022-11-09T06:26:16.328Z,1628.95
2022-11-09T06:28:44.475Z,1626.57
2022-11-09T06:31:14.767Z,1628.20
2022-11-09T06:33:43.003Z,1628.65
2022-11-09T06:36:11.817Z,1627.43
2022-11-09T06:38:39.896Z,1625.28
2022-11-09T06:41:08.026Z,1626.10
2022-11-09T06:43:37.702Z,1627.32
2022-11-09T06:46:05.973Z,1628.43
2022-11-09T06:48:34.109Z,1628.18
2022-11-09T06:51:03.473Z,1626.85
2022-11-09T06:53:33.477Z,1630.80
2022-11-09T06:56:03.302Z,1622.13
2022-11-09T06:58:31.996Z,1624.60
2022-11-09T07:01:04.290Z,1632.43
2022-11-09T07:03:32.360Z,1625.37
2022-11-09T07:06:04.842Z,1628.05
2022-11-09T07:08:33.023Z,1634.97
2022-11-09T07:11:04.918Z,1629.13
2022-11-09T07:13:32.971Z,1628.03
2022-11-09T07:16:02.575Z,1623.00
2022-11-09T07:18:30.663Z,1624.68
2022-11-09T07:20:58.739Z,1627.35
2022-11-09T07:23:26.906Z,1618.75
2022-11-09T07:25:55.321Z,1621.28
2022-11-09T07:28:23.386Z,1618.90
2022-11-09T07:30:52.990Z,1621.70
2022-11-09T07:33:23.642Z,1624.93
2022-11-09T07:35:52.079Z,1619.13
2022-11-09T07:38:20.854Z,1624.50
2022-11-09T07:40:49.097Z,1617.20
2022-11-09T07:43:17.421Z,1619.22
2022-11-09T07:45:51.090Z,1620.03
2022-11-09T07:48:19.259Z,1620.40
2022-11-09T07:50:48.711Z,1617.35
2022-11-09T07:53:17.978Z,1620.75
2022-11-09T07:55:46.201Z,1620.63
2022-11-09T07:58:16.082Z,1622.53
2022-11-09T08:00:44.981Z,1616.82
2022-11-09T08:03:13.118Z,1621.80
2022-11-09T08:05:41.299Z,1617.25
2022-11-09T08:08:12.986Z,1621.72
2022-11-09T08:10:41.279Z,1622.07
2022-11-09T08:13:13.373Z,1615.03
2022-11-09T08:15:42.370Z,1618.32
2022-11-09T08:18:14.001Z,1617.55
2022-11-09T08:20:42.560Z,1620.07
2022-11-09T08:23:14.155Z,1620.78
2022-11-09T08:25:42.844Z,1619.22
2022-11-09T08:28:14.706Z,1621.47
2022-11-09T08:30:44.382Z,1620.53
2022-11-09T08:33:13.521Z,1618.53
2022-11-09T08:35:41.608Z,1619.10
2022-11-09T08:38:10.600Z,1618.60
2022-11-09T08:40:39.987Z,1616.00
2022-11-09T08:43:11.465Z,1613.30
2022-11-09T08:45:41.167Z,1614.57
2022-11-09T08:48:11.208Z,1614.30
2022-11-09T08:50:39.308Z,1611.82
2022-11-09T08:53:08.032Z,1618.15
2022-11-09T08:55:36.822Z,1615.75
2022-11-09T08:58:06.205Z,1618.80
2022-11-09T09:00:34.510Z,1613.88
2022-11-09T09:03:05.603Z,1611.13
2022-11-09T09:05:33.901Z,1614.57
2022-11-09T09:08:03.378Z,1607.15
2022-11-09T09:10:32.409Z,1610.05
2022-11-09T09:13:01.478Z,1616.40
2022-11-09T09:15:31.040Z,1610.23
2022-11-09T09:18:00.865Z,1610.22
2022-11-09T09:20:29.406Z,1607.88
2022-11-09T09:22:59.270Z,1610.65
2022-11-09T09:25:27.794Z,1610.47
2022-11-09T09:27:56.051Z,1601.78
2022-11-09T09:30:24.369Z,1604.00
2022-11-09T09:32:53.958Z,1602.80
2022-11-09T09:35:21.994Z,1607.90
2022-11-09T09:37:50.172Z,1596.47
2022-11-09T09:40:25.862Z,1595.80
2022-11-09T09:42:55.572Z,1598.18
2022-11-09T09:45:29.666Z,1598.53
2022-11-09T09:48:01.947Z,1601.10
2022-11-09T09:50:43.110Z,1596.40
2022-11-09T09:53:26.536Z,1598.57
2022-11-09T09:55:58.436Z,1597.90
2022-11-09T10:01:46.047Z,1591.22
2022-11-09T10:04:20.531Z,1591.00
2022-11-09T10:07:02.001Z,1588.70
2022-11-09T10:09:46.776Z,1586.03
2022-11-09T10:12:23.466Z,1591.22
2022-11-09T10:15:08.012Z,1593.13
2022-11-09T10:17:44.483Z,1583.80
2022-11-09T10:20:29.138Z,1583.75
2022-11-09T10:23:07.804Z,1585.65
2022-11-09T10:28:47.674Z,1592.30
2022-11-09T10:31:21.480Z,1587.47
2022-11-09T10:33:55.359Z,1597.78
2022-11-09T10:36:28.754Z,1593.85
2022-11-09T10:39:01.853Z,1593.32
2022-11-09T10:41:48.972Z,1596.53
2022-11-09T10:44:35.359Z,1595.57
2022-11-09T10:47:22.630Z,1593.10
2022-11-09T10:50:22.099Z,1594.47
2022-11-09T10:53:15.186Z,1592.97
2022-11-09T10:56:19.975Z,1592.50
2022-11-09T10:59:36.024Z,1589.80
2022-11-09T11:02:44.254Z,1595.45
2022-11-09T11:05:35.490Z,1595.82
2022-11-09T11:08:39.148Z,1590.90
2022-11-09T11:11:33.733Z,1590.80
2022-11-09T11:14:30.137Z,1591.75
2022-11-09T11:17:25.110Z,1588.30
2022-11-09T11:20:29.917Z,1593.72
2022-11-09T11:23:19.479Z,1591.03
2022-11-09T11:26:33.171Z,1592.60
2022-11-09T11:29:37.846Z,1588.88
2022-11-09T11:32:25.040Z,1593.97
2022-11-09T11:35:15.454Z,1593.13
2022-11-09T11:38:19.777Z,1590.75
2022-11-09T11:41:28.055Z,1593.68
2022-11-09T11:44:29.508Z,1588.27
2022-11-09T11:47:25.078Z,1589.18
2022-11-09T11:50:33.827Z,1594.05
2022-11-09T11:53:42.147Z,1591.23
2022-11-09T11:56:33.900Z,1594.07
2022-11-09T11:59:37.118Z,1592.72
2022-11-09T12:03:01.694Z,1592.10
2022-11-09T12:06:29.474Z,1589.35
2022-11-09T12:09:30.249Z,1578.07
2022-11-09T12:12:25.580Z,1573.35
2022-11-09T12:15:27.965Z,1568.35
2022-11-09T12:18:26.616Z,1566.15
2022-11-09T12:21:17.368Z,1531.28
2022-11-09T12:24:15.587Z,1526.18
2022-11-09T12:27:33.580Z,1522.47
2022-11-09T12:30:24.209Z,1525.55
2022-11-09T12:33:14.798Z,1530.07
2022-11-09T12:36:07.768Z,1526.43
2022-11-09T12:39:05.858Z,1530.93
2022-11-09T12:41:54.402Z,1520.55
2022-11-09T12:44:47.007Z,1521.93
2022-11-09T12:47:41.377Z,1519.03
2022-11-09T12:50:29.226Z,1522.35
2022-11-09T12:53:16.572Z,1523.72
2022-11-09T12:56:06.638Z,1523.80
2022-11-09T12:58:53.652Z,1518.97
2022-11-09T13:01:51.240Z,1520.38
2022-11-09T13:04:39.352Z,1519.25
2022-11-09T13:07:49.699Z,1518.40
2022-11-09T13:10:38.568Z,1519.18
2022-11-09T13:13:26.130Z,1514.93
2022-11-09T13:16:29.232Z,1519.20
2022-11-09T13:19:54.323Z,1519.05
2022-11-09T13:23:01.534Z,1526.00
2022-11-09T13:25:52.938Z,1516.68
2022-11-09T13:29:11.118Z,1519.00
2022-11-09T13:32:25.583Z,1519.55
2022-11-09T13:35:45.574Z,1519.90
2022-11-09T13:38:33.872Z,1516.45
2022-11-09T13:41:43.740Z,1522.15
2022-11-09T13:44:34.457Z,1522.63
2022-11-09T13:47:27.267Z,1524.60
2022-11-09T13:50:19.810Z,1526.75
2022-11-09T13:53:31.509Z,1527.20
2022-11-09T13:56:27.579Z,1415.35
2022-11-09T13:59:23.640Z,1414.43
2022-11-09T14:02:19.616Z,1396.63
2022-11-09T14:05:06.640Z,1402.72
2022-11-09T14:07:56.149Z,1405.47
2022-11-09T14:10:56.032Z,1399.65
2022-11-09T14:14:10.980Z,1402.03
2022-11-09T14:17:02.948Z,1394.10
2022-11-09T14:20:00.857Z,1396.22
2022-11-09T14:22:47.857Z,1401.43
2022-11-09T14:25:37.156Z,1397.22
2022-11-09T14:28:27.946Z,1408.75
2022-11-09T14:31:26.643Z,1396.13
2022-11-09T14:34:16.898Z,1401.85
2022-11-09T14:37:06.376Z,1388.30
2022-11-09T14:39:54.453Z,1414.00
2022-11-09T14:42:46.046Z,1388.33
2022-11-09T14:45:34.808Z,1390.80
2022-11-09T14:48:23.360Z,1388.07
2022-11-09T14:51:14.683Z,1389.10
2022-11-09T14:54:02.798Z,1386.70
2022-11-09T14:56:49.567Z,1383.47
2022-11-09T14:59:37.053Z,1389.70
2022-11-09T15:02:26.344Z,1441.18
2022-11-09T15:05:32.748Z,1456.35
2022-11-09T15:08:22.501Z,1455.43
2022-11-09T15:11:09.785Z,1460.35
2022-11-09T15:13:56.432Z,1462.10
2022-11-09T15:16:43.813Z,1423.00
2022-11-09T15:19:33.413Z,1434.45
2022-11-09T15:22:42.893Z,1426.30
2022-11-09T15:25:32.807Z,1448.35
2022-11-09T15:28:25.453Z,1461.32
2022-11-09T15:31:16.298Z,1462.57
2022-11-09T15:34:03.176Z,1477.65
2022-11-09T15:36:56.457Z,1475.72
2022-11-09T15:39:43.510Z,1492.85
2022-11-09T15:42:30.502Z,1486.40
2022-11-09T15:45:20.157Z,1487.18
2022-11-09T15:48:06.751Z,1487.82
2022-11-09T15:50:53.875Z,1488.63
2022-11-09T15:53:41.748Z,1492.57
2022-11-09T15:56:28.642Z,1490.93
2022-11-09T15:59:20.897Z,1490.80
2022-11-09T16:02:07.382Z,1489.65
2022-11-09T16:04:53.922Z,1499.78
2022-11-09T16:07:48.693Z,1524.47
2022-11-09T16:10:39.709Z,1533.05
2022-11-09T16:13:26.469Z,1536.47
2022-11-09T16:16:15.012Z,1525.38
2022-11-09T16:19:01.956Z,1532.03
2022-11-09T16:21:48.803Z,1528.90
2022-11-09T16:24:35.069Z,1525.97
2022-11-09T16:27:48.555Z,1528.93
2022-11-09T16:30:30.187Z,1522.57
2022-11-09T16:33:16.919Z,1522.30
2022-11-09T16:36:05.935Z,1530.57
2022-11-09T16:38:55.169Z,1533.45
2022-11-09T16:41:42.966Z,1527.32
2022-11-09T16:44:35.034Z,1525.53
2022-11-09T16:47:22.254Z,1519.57
2022-11-09T16:50:09.977Z,1524.78
2022-11-09T16:52:56.781Z,1518.20
2022-11-09T16:55:43.291Z,1522.43
2022-11-09T16:58:30.013Z,1522.47
2022-11-09T17:01:22.997Z,1523.22
2022-11-09T17:04:10.209Z,1521.63
2022-11-09T17:06:57.038Z,1526.55
2022-11-09T17:09:44.026Z,1519.47
2022-11-09T17:12:31.158Z,1521.85
2022-11-09T17:15:20.177Z,1533.60
2022-11-09T17:18:09.864Z,1527.68
2022-11-09T17:20:56.307Z,1529.00
2022-11-09T17:23:43.612Z,1528.40
2022-11-09T17:26:33.530Z,1528.93
2022-11-09T17:29:20.501Z,1527.78
2022-11-09T17:32:07.858Z,1526.15
2022-11-09T17:34:55.965Z,1525.63
2022-11-09T17:37:42.628Z,1530.13
2022-11-09T17:40:29.450Z,1530.70
2022-11-09T17:43:16.288Z,1531.85
2022-11-09T17:46:06.882Z,1528.95
2022-11-09T17:48:53.459Z,1529.55
2022-11-09T17:51:41.848Z,1526.78
2022-11-09T17:54:33.950Z,1525.45
2022-11-09T17:57:23.662Z,1521.20
2022-11-09T18:00:11.420Z,1520.97
2022-11-09T18:02:57.882Z,1521.97
2022-11-09T18:05:45.646Z,1520.03
2022-11-09T18:08:33.486Z,1522.03
2022-11-09T18:11:20.173Z,1518.95
2022-11-09T18:14:06.964Z,1523.17
2022-11-09T18:16:53.672Z,1522.07
2022-11-09T18:19:40.565Z,1521.72
2022-11-09T18:22:27.103Z,1521.38
2022-11-09T18:25:14.914Z,1519.78
2022-11-09T18:28:01.948Z,1521.30
2022-11-09T18:30:48.528Z,1523.20
2022-11-09T18:33:35.690Z,1523.18
2022-11-09T18:36:23.530Z,1523.95
2022-11-09T18:39:10.175Z,1514.10
2022-11-09T18:42:00.314Z,1517.60
2022-11-09T18:44:47.485Z,1523.90
2022-11-09T18:47:34.597Z,1524.78
2022-11-09T18:50:21.820Z,1518.38
2022-11-09T18:53:08.682Z,1515.20
2022-11-09T18:56:06.311Z,1518.07
2022-11-09T18:58:56.467Z,1518.65
2022-11-09T19:01:43.297Z,1516.05
2022-11-09T19:04:29.601Z,1524.25
2022-11-09T19:07:16.315Z,1519.88
2022-11-09T19:10:03.170Z,1517.18
2022-11-09T19:12:49.570Z,1517.82
2022-11-09T19:15:41.862Z,1516.57
2022-11-09T19:18:28.860Z,1519.82
2022-11-09T19:21:28.134Z,1522.72
2022-11-09T19:24:16.413Z,1520.53
2022-11-09T19:27:03.096Z,1524.30
2022-11-09T19:29:49.565Z,1515.57
2022-11-09T19:32:37.397Z,1517.85
2022-11-09T19:35:27.283Z,1511.18
2022-11-09T19:38:15.029Z,1517.57
2022-11-09T19:41:02.493Z,1519.40
2022-11-09T19:43:50.749Z,1518.90
2022-11-09T19:46:37.387Z,1518.90
2022-11-09T19:49:26.051Z,1517.75
2022-11-09T19:52:12.934Z,1514.18
2022-11-09T19:54:59.291Z,1514.45
2022-11-09T19:57:45.809Z,1523.25
2022-11-09T20:00:32.496Z,1523.43
2022-11-09T20:03:19.341Z,1521.82
2022-11-09T20:06:07.997Z,1520.13
2022-11-09T20:08:55.048Z,1522.03
2022-11-09T20:11:59.203Z,1519.87
2022-11-09T20:14:45.931Z,1519.70
2022-11-09T20:17:32.459Z,1519.85
2022-11-09T20:20:19.584Z,1519.57
2022-11-09T20:23:07.833Z,1519.10
2022-11-09T20:26:04.735Z,1519.50
2022-11-09T20:28:53.094Z,1514.55
2022-11-09T20:31:39.829Z,1515.20
2022-11-09T20:34:29.522Z,1510.13
2022-11-09T20:37:16.578Z,1514.88
2022-11-09T20:40:07.937Z,1515.32
2022-11-09T20:42:54.501Z,1516.85
2022-11-09T20:45:41.220Z,1515.57
2022-11-09T20:48:52.115Z,1518.80
2022-11-09T20:51:35.329Z,1515.47
2022-11-09T20:54:22.013Z,1515.38
2022-11-09T20:57:10.045Z,1525.45
2022-11-09T20:59:56.792Z,1528.07
2022-11-09T21:02:43.466Z,1528.05
2022-11-09T21:05:30.043Z,1523.45
2022-11-09T21:08:16.686Z,1527.97
2022-11-09T21:11:05.389Z,1529.03
2022-11-09T21:13:54.018Z,1529.70
2022-11-09T21:16:41.330Z,1530.63
2022-11-09T21:19:28.076Z,1526.72
2022-11-09T21:22:15.358Z,1525.82
2022-11-09T21:25:33.937Z,1528.00
2022-11-09T21:28:38.350Z,1531.93
2022-11-09T21:31:26.697Z,1528.70
2022-11-09T21:34:13.209Z,1527.82
2022-11-09T21:37:00.122Z,1527.00
2022-11-09T21:39:48.902Z,1528.90
2022-11-09T21:42:35.653Z,1535.60
2022-11-09T21:45:22.098Z,1556.43
2022-11-09T21:48:10.582Z,1573.63
2022-11-09T21:50:58.703Z,1567.45
2022-11-09T21:53:45.490Z,1569.22
2022-11-09T21:56:32.159Z,1564.32
2022-11-09T21:59:19.298Z,1572.53
2022-11-09T22:02:06.233Z,1578.05
2022-11-09T22:04:54.115Z,1580.18
2022-11-09T22:07:40.870Z,1581.03
2022-11-09T22:10:27.479Z,1578.82
2022-11-09T22:13:32.748Z,1579.07
2022-11-09T22:16:20.199Z,1582.65
2022-11-09T22:19:24.298Z,1580.90
2022-11-09T22:22:12.572Z,1578.55
2022-11-09T22:24:59.091Z,1583.55
2022-11-09T22:27:45.709Z,1579.13
2022-11-09T22:30:32.252Z,1582.45
2022-11-09T22:33:25.857Z,1583.30
2022-11-09T22:36:15.113Z,1579.32
2022-11-09T22:39:03.570Z,1582.13
2022-11-09T22:41:50.036Z,1574.88
2022-11-09T22:44:36.830Z,1574.80
2022-11-09T22:47:23.749Z,1576.40
2022-11-09T22:50:10.806Z,1572.20
2022-11-09T22:53:02.445Z,1574.93
2022-11-09T22:55:55.067Z,1593.88
2022-11-09T22:58:41.478Z,1581.43
2022-11-09T23:01:28.626Z,1577.43
2022-11-09T23:04:15.560Z,1575.03
2022-11-09T23:07:02.102Z,1579.45
2022-11-09T23:09:49.070Z,1580.53
2022-11-09T23:12:36.848Z,1587.88
2022-11-09T23:15:23.598Z,1571.50
2022-11-09T23:18:28.023Z,1573.65
2022-11-09T23:21:15.928Z,1578.03
2022-11-09T23:24:04.263Z,1583.93
2022-11-09T23:26:50.967Z,1586.53
2022-11-09T23:29:38.848Z,1577.70
2022-11-09T23:32:25.272Z,1585.30
2022-11-09T23:35:11.714Z,1585.45
2022-11-09T23:37:59.555Z,1578.38
2022-11-09T23:40:46.732Z,1580.63
2022-11-09T23:43:33.776Z,1581.53
2022-11-09T23:46:22.257Z,1575.77
2022-11-09T23:49:09.045Z,1586.22
2022-11-09T23:51:55.608Z,1582.60
2022-11-09T23:54:42.329Z,1583.10
2022-11-09T23:57:29.298Z,1581.55
